^^
Saratoga-Weather Station Historical Data
Daily Summary for September 6, 2021 Units:  English    Metric   Both
Daily Weekly Monthly Yearly Custom
  High: Low: Average:
Temperature: 48.6 °F 37.9 °F 42.8 °F
Dew Point: 45.1 °F 36.9 °F 40.5 °F
Humidity: 97% 75% 91%
Wind Speed: 8.9mph 0mph 0.7mph
Wind Gust: 9mph - -
Wind- - SSW
Pressure: 30.4 in 30.3 in -
Precipitation: 0 in    
Historical Graphs
 
 
Tabular Data for September 6, 2021
Time Temperature Dew Point Pressure Wind Wind Speed Wind Gust Humidity Rainfall Rate (Hourly) solar
00:02 44.4 °F 42.8 °F 30.4 in Calm     94% 0 in 0 W/m2
00:07 44.6 °F 43 °F 30.4 in SSE 0.9 mph 2 mph 94% 0 in 0 W/m2
00:12 44.4 °F 42.8 °F 30.4 in SE 0.9 mph 2 mph 94% 0 in 0 W/m2
00:17 44.4 °F 42.8 °F 30.4 in Calm     94% 0 in 0 W/m2
00:23 44.2 °F 42.6 °F 30.4 in Calm   2 mph 94% 0 in 0 W/m2
00:28 44.2 °F 42.6 °F 30.4 in Calm     94% 0 in 0 W/m2
00:33 44.2 °F 42.6 °F 30.4 in Calm     94% 0 in 0 W/m2
00:38 44.2 °F 42.6 °F 30.4 in Calm     94% 0 in 0 W/m2
00:43 44.1 °F 42.4 °F 30.4 in Calm     94% 0 in 0 W/m2
00:48 44.1 °F 42.4 °F 30.4 in Calm     94% 0 in 0 W/m2
00:53 44.1 °F 42.4 °F 30.4 in Calm     94% 0 in 0 W/m2
00:58 44.1 °F 42.4 °F 30.4 in Calm     94% 0 in 0 W/m2
01:03 44.1 °F 42.4 °F 30.4 in Calm     94% 0 in 0 W/m2
01:08 43.9 °F 42.3 °F 30.4 in Calm     94% 0 in 0 W/m2
01:13 43.9 °F 42.3 °F 30.4 in Calm     94% 0 in 0 W/m2
01:18 43.9 °F 42.3 °F 30.4 in Calm     94% 0 in 0 W/m2
01:23 43.9 °F 42.3 °F 30.4 in Calm     94% 0 in 0 W/m2
01:28 43.7 °F 42.1 °F 30.4 in Calm     94% 0 in 0 W/m2
01:33 43.7 °F 42.4 °F 30.4 in Calm     95% 0 in 0 W/m2
01:38 43.5 °F 42.3 °F 30.4 in Calm     95% 0 in 0 W/m2
01:43 43.5 °F 41.9 °F 30.4 in Calm     94% 0 in 0 W/m2
01:48 43.5 °F 41.9 °F 30.4 in Calm     94% 0 in 0 W/m2
01:53 43.5 °F 41.9 °F 30.4 in Calm     94% 0 in 0 W/m2
01:58 43.5 °F 41.9 °F 30.4 in Calm     94% 0 in 0 W/m2
02:03 43.5 °F 42.3 °F 30.4 in WSW 0.9 mph 1 mph 95% 0 in 0 W/m2
02:08 43.5 °F 42.3 °F 30.4 in Calm     95% 0 in 0 W/m2
02:13 43.5 °F 42.3 °F 30.4 in Calm   1 mph 95% 0 in 0 W/m2
02:18 43.7 °F 42.4 °F 30.4 in Calm   1 mph 95% 0 in 0 W/m2
02:23 43.9 °F 42.6 °F 30.4 in Calm   1 mph 95% 0 in 0 W/m2
02:28 44.1 °F 42.8 °F 30.4 in Calm     95% 0 in 0 W/m2
02:33 44.1 °F 42.8 °F 30.4 in Calm   1 mph 95% 0 in 0 W/m2
02:38 44.1 °F 42.8 °F 30.4 in Calm     95% 0 in 0 W/m2
02:43 44.1 °F 42.8 °F 30.4 in Calm     95% 0 in 0 W/m2
02:48 44.1 °F 42.8 °F 30.4 in Calm     95% 0 in 0 W/m2
02:53 43.9 °F 42.6 °F 30.4 in Calm     95% 0 in 0 W/m2
02:58 43.9 °F 42.6 °F 30.4 in Calm     95% 0 in 0 W/m2
03:03 43.7 °F 42.4 °F 30.4 in Calm     95% 0 in 0 W/m2
03:08 43.5 °F 42.3 °F 30.4 in Calm     95% 0 in 0 W/m2
03:13 43.3 °F 42.1 °F 30.4 in Calm     95% 0 in 0 W/m2
03:18 43.2 °F 41.9 °F 30.4 in Calm     95% 0 in 0 W/m2
03:23 42.8 °F 41.2 °F 30.4 in Calm     94% 0 in 0 W/m2
03:28 42.4 °F 41.2 °F 30.4 in Calm     95% 0 in 0 W/m2
03:33 42.3 °F 40.6 °F 30.4 in Calm     94% 0 in 0 W/m2
03:38 41.9 °F 40.3 °F 30.4 in Calm     94% 0 in 0 W/m2
03:43 41.5 °F 39.9 °F 30.4 in Calm     94% 0 in 0 W/m2
03:48 41.4 °F 39.7 °F 30.4 in Calm     94% 0 in 0 W/m2
03:53 41.2 °F 39.6 °F 30.4 in Calm     94% 0 in 0 W/m2
03:58 40.8 °F 39.2 °F 30.4 in Calm     94% 0 in 0 W/m2
04:03 40.6 °F 39.4 °F 30.4 in Calm     95% 0 in 0 W/m2
04:08 40.5 °F 38.8 °F 30.4 in Calm     94% 0 in 0 W/m2
04:13 40.5 °F 39.2 °F 30.4 in Calm     95% 0 in 0 W/m2
04:18 40.5 °F 39.2 °F 30.4 in Calm     95% 0 in 0 W/m2
04:23 40.6 °F 39.4 °F 30.4 in Calm     95% 0 in 0 W/m2
04:28 40.8 °F 39.6 °F 30.4 in Calm     95% 0 in 0 W/m2
04:33 41 °F 39.9 °F 30.4 in Calm     96% 0 in 0 W/m2
04:38 41.2 °F 40.1 °F 30.4 in Calm     96% 0 in 0 W/m2
04:43 41.4 °F 40.3 °F 30.4 in Calm     96% 0 in 0 W/m2
04:48 41.4 °F 40.3 °F 30.4 in Calm     96% 0 in 0 W/m2
04:53 41.5 °F 40.5 °F 30.4 in Calm     96% 0 in 0 W/m2
04:58 41.7 °F 40.6 °F 30.4 in Calm     96% 0 in 0 W/m2
05:03 41.7 °F 40.6 °F 30.4 in Calm     96% 0 in 0 W/m2
05:08 41.7 °F 40.6 °F 30.4 in Calm     96% 0 in 0 W/m2
05:13 41.9 °F 40.8 °F 30.4 in Calm     96% 0 in 0 W/m2
05:18 41.9 °F 40.8 °F 30.4 in Calm     96% 0 in 0 W/m2
05:23 41.9 °F 40.8 °F 30.4 in Calm     96% 0 in 0 W/m2
05:28 41.9 °F 40.8 °F 30.4 in Calm     96% 0 in 0 W/m2
05:33 41.9 °F 40.8 °F 30.4 in Calm     96% 0 in 0 W/m2
05:38 41.7 °F 40.6 °F 30.4 in Calm     96% 0 in 0 W/m2
05:43 41.5 °F 40.5 °F 30.4 in Calm     96% 0 in 0 W/m2
05:48 41.4 °F 40.3 °F 30.4 in Calm     96% 0 in 0 W/m2
05:53 41.2 °F 40.1 °F 30.4 in Calm     96% 0 in 0 W/m2
05:58 40.8 °F 39.6 °F 30.4 in Calm     95% 0 in 0 W/m2
06:03 40.8 °F 39.7 °F 30.4 in Calm     96% 0 in 0 W/m2
06:08 40.6 °F 39.6 °F 30.4 in Calm     96% 0 in 0 W/m2
06:13 40.6 °F 39.6 °F 30.4 in Calm     96% 0 in 0 W/m2
06:18 40.5 °F 39.4 °F 30.4 in Calm   1 mph 96% 0 in 0 W/m2
06:23 40.5 °F 39.4 °F 30.4 in Calm     96% 0 in 0 W/m2
06:28 40.3 °F 39.2 °F 30.4 in Calm     96% 0 in 0 W/m2
06:33 40.1 °F 39 °F 30.4 in Calm     96% 0 in 0 W/m2
06:38 39.9 °F 38.8 °F 30.4 in Calm     96% 0 in 0 W/m2
06:43 39.7 °F 38.7 °F 30.4 in Calm     96% 0 in 0 W/m2
06:48 39.6 °F 38.5 °F 30.4 in Calm     96% 0 in 0 W/m2
06:53 39.4 °F 38.3 °F 30.4 in Calm     96% 0 in 0 W/m2
06:58 39.4 °F 38.3 °F 30.4 in Calm     96% 0 in 0 W/m2
07:03 39.2 °F 38.1 °F 30.4 in Calm     96% 0 in 0 W/m2
07:08 39 °F 37.9 °F 30.4 in Calm     96% 0 in 0 W/m2
07:13 38.8 °F 37.8 °F 30.4 in Calm     96% 0 in 0 W/m2
07:18 38.8 °F 37.8 °F 30.4 in Calm     96% 0 in 0 W/m2
07:23 38.8 °F 37.8 °F 30.4 in Calm     96% 0 in 0 W/m2
07:28 38.7 °F 37.6 °F 30.4 in Calm     96% 0 in 0 W/m2
07:33 38.5 °F 37.4 °F 30.4 in Calm     96% 0 in 5 W/m2
07:38 38.5 °F 37.4 °F 30.4 in Calm     96% 0 in 5 W/m2
07:43 38.3 °F 37.2 °F 30.4 in Calm     96% 0 in 7 W/m2
07:48 38.1 °F 37 °F 30.4 in Calm     96% 0 in 11 W/m2
07:53 38.1 °F 37 °F 30.4 in Calm     96% 0 in 12 W/m2
07:58 37.9 °F 36.9 °F 30.4 in Calm     96% 0 in 14 W/m2
08:03 37.9 °F 36.9 °F 30.4 in Calm     96% 0 in 16 W/m2
08:08 37.9 °F 36.9 °F 30.4 in Calm     96% 0 in 18 W/m2
08:13 37.9 °F 36.9 °F 30.4 in Calm     96% 0 in 18 W/m2
08:18 38.1 °F 37 °F 30.4 in Calm     96% 0 in 21 W/m2
08:24 38.1 °F 37 °F 30.4 in Calm     96% 0 in 23 W/m2
08:29 38.1 °F 37 °F 30.4 in Calm     96% 0 in 26 W/m2
08:34 38.3 °F 37.2 °F 30.4 in Calm     96% 0 in 28 W/m2
08:39 38.3 °F 37.2 °F 30.4 in Calm     96% 0 in 32 W/m2
08:44 38.5 °F 37.4 °F 30.4 in Calm     96% 0 in 33 W/m2
08:49 38.5 °F 37.4 °F 30.4 in Calm     96% 0 in 49 W/m2
08:54 38.8 °F 38.1 °F 30.4 in Calm     97% 0 in 91 W/m2
08:59 39 °F 38.3 °F 30.4 in Calm     97% 0 in 54 W/m2
09:04 39.4 °F 38.7 °F 30.4 in Calm     97% 0 in 77 W/m2
09:09 39.6 °F 38.8 °F 30.4 in Calm     97% 0 in 53 W/m2
09:14 39.7 °F 39 °F 30.4 in Calm     97% 0 in 42 W/m2
09:19 39.9 °F 39.2 °F 30.4 in Calm     97% 0 in 97 W/m2
09:24 40.3 °F 39.6 °F 30.4 in Calm     97% 0 in 49 W/m2
09:29 40.5 °F 39.7 °F 30.4 in Calm   1 mph 97% 0 in 37 W/m2
09:34 40.6 °F 39.9 °F 30.4 in Calm     97% 0 in 56 W/m2
09:39 41 °F 40.3 °F 30.4 in SSE 2 mph 3 mph 97% 0 in 39 W/m2
09:44 41.4 °F 40.6 °F 30.4 in Calm   1 mph 97% 0 in 40 W/m2
09:49 41.5 °F 40.8 °F 30.4 in Calm     97% 0 in 40 W/m2
09:54 41.7 °F 41 °F 30.4 in ESE 0.9 mph 2 mph 97% 0 in 42 W/m2
09:59 42.1 °F 41.4 °F 30.4 in ESE 0.9 mph 3 mph 97% 0 in 56 W/m2
10:04 42.1 °F 41.4 °F 30.4 in ESE 2 mph 3 mph 97% 0 in 62 W/m2
10:09 42.3 °F 41.5 °F 30.4 in East 2 mph 2 mph 97% 0 in 49 W/m2
10:14 42.4 °F 41.7 °F 30.4 in East 2 mph 3 mph 97% 0 in 51 W/m2
10:19 42.4 °F 41.7 °F 30.4 in East 2 mph 3 mph 97% 0 in 60 W/m2
10:24 42.6 °F 41.9 °F 30.4 in East 2 mph 3 mph 97% 0 in 86 W/m2
10:29 42.6 °F 41.9 °F 30.4 in East 2 mph 4 mph 97% 0 in 63 W/m2
10:34 42.4 °F 41.7 °F 30.4 in East 2.9 mph 4 mph 97% 0 in 47 W/m2
10:39 42.4 °F 41.7 °F 30.4 in East 2 mph 3 mph 97% 0 in 42 W/m2
10:44 42.6 °F 41.9 °F 30.4 in East 2.9 mph 4 mph 97% 0 in 44 W/m2
10:49 42.8 °F 42.1 °F 30.4 in ESE 2.9 mph 4 mph 97% 0 in 67 W/m2
10:54 43 °F 42.3 °F 30.4 in ESE 2.9 mph 6 mph 97% 0 in 62 W/m2
10:59 43.3 °F 42.6 °F 30.4 in East 2.9 mph 4 mph 97% 0 in 125 W/m2
11:04 43.3 °F 42.6 °F 30.4 in ESE 2 mph 3 mph 97% 0 in 54 W/m2
11:09 43.3 °F 42.6 °F 30.4 in Calm   3 mph 97% 0 in 46 W/m2
11:14 43.9 °F 43.2 °F 30.4 in ESE 2 mph 2 mph 97% 0 in 47 W/m2
11:19 44.1 °F 43.3 °F 30.4 in ESE 0.9 mph 2 mph 97% 0 in 49 W/m2
11:24 44.2 °F 43.5 °F 30.4 in ENE 0.9 mph 2 mph 97% 0 in 37 W/m2
11:29 44.4 °F 43.7 °F 30.4 in Calm   3 mph 97% 0 in 40 W/m2
11:34 45 °F 44.2 °F 30.4 in ENE 2 mph 3 mph 97% 0 in 40 W/m2
11:39 45.3 °F 44.6 °F 30.4 in East 0.9 mph 2 mph 97% 0 in 44 W/m2
11:44 45.7 °F 44.6 °F 30.4 in NE 2 mph 3 mph 96% 0 in 76 W/m2
11:49 45.9 °F 44.8 °F 30.4 in East 4 mph 4 mph 96% 0 in 65 W/m2
11:54 46.2 °F 45.1 °F 30.4 in East 2 mph 4 mph 96% 0 in 76 W/m2
11:59 46.8 °F 45.1 °F 30.4 in Calm   1 mph 94% 0 in 139 W/m2
12:04 47.1 °F 45.1 °F 30.4 in ENE 2.9 mph 4 mph 93% 0 in 63 W/m2
12:09 47.3 °F 44.6 °F 30.4 in WSW 2 mph 3 mph 90% 0 in 42 W/m2
12:14 47.3 °F 43.3 °F 30.4 in Calm   2 mph 86% 0 in 62 W/m2
12:19 47.5 °F 42.3 °F 30.4 in WNW 2 mph 6 mph 82% 0 in 47 W/m2
12:24 47.7 °F 41.7 °F 30.4 in WNW 2.9 mph 4 mph 80% 0 in 40 W/m2
12:29 48 °F 41.9 °F 30.4 in WSW 2 mph 3 mph 79% 0 in 39 W/m2
12:34 48 °F 41.9 °F 30.4 in West 2 mph 6 mph 79% 0 in 33 W/m2
12:39 48 °F 41.9 °F 30.4 in WNW 2.9 mph 7 mph 79% 0 in 33 W/m2
12:44 48.2 °F 42.1 °F 30.4 in WSW 4 mph 6 mph 79% 0 in 39 W/m2
12:49 48.4 °F 42.3 °F 30.4 in WSW 4 mph 7 mph 79% 0 in 67 W/m2
12:54 48.4 °F 42.3 °F 30.4 in NW 4.9 mph 6 mph 79% 0 in 37 W/m2
12:59 48.4 °F 41.5 °F 30.4 in West 2.9 mph 7 mph 77% 0 in 44 W/m2
13:04 48.4 °F 40.8 °F 30.4 in West 4 mph 8 mph 75% 0 in 130 W/m2
13:09 48.4 °F 40.8 °F 30.4 in West 4 mph 8 mph 75% 0 in 81 W/m2
13:14 48.4 °F 41.2 °F 30.4 in WNW 4 mph 6 mph 76% 0 in 42 W/m2
13:19 48.4 °F 41.2 °F 30.4 in WSW 0.9 mph 4 mph 76% 0 in 53 W/m2
13:24 48.6 °F 41.4 °F 30.4 in NW 0.9 mph 4 mph 76% 0 in 53 W/m2
13:29 48.6 °F 41.4 °F 30.4 in WNW 2.9 mph 7 mph 76% 0 in 113 W/m2
13:34 48.6 °F 41.4 °F 30.4 in WNW 2 mph 4 mph 76% 0 in 58 W/m2
13:39 48.6 °F 41.7 °F 30.4 in West 4 mph 9 mph 77% 0 in 49 W/m2
13:44 48.4 °F 41.5 °F 30.4 in NW 8.9 mph 9 mph 77% 0 in 104 W/m2
13:49 48.4 °F 41.5 °F 30.4 in West 2.9 mph 6 mph 77% 0 in 54 W/m2
13:54 48.2 °F 41.4 °F 30.4 in WNW 2 mph 6 mph 77% 0 in 40 W/m2
13:59 48.4 °F 41.5 °F 30.4 in West 2.9 mph 6 mph 77% 0 in 33 W/m2
14:04 48.4 °F 41.9 °F 30.4 in West 2.9 mph 4 mph 78% 0 in 33 W/m2
14:09 48.2 °F 42.1 °F 30.4 in West 2.9 mph 8 mph 79% 0 in 35 W/m2
14:14 48.2 °F 42.1 °F 30.4 in WNW 4 mph 4 mph 79% 0 in 33 W/m2
14:19 48.2 °F 42.3 °F 30.4 in West 2 mph 3 mph 80% 0 in 33 W/m2
14:24 48.2 °F 42.3 °F 30.4 in West 2 mph 3 mph 80% 0 in 32 W/m2
14:29 48 °F 42.1 °F 30.4 in WSW 2 mph 6 mph 80% 0 in 35 W/m2
14:34 48 °F 42.1 °F 30.4 in West 0.9 mph 3 mph 80% 0 in 32 W/m2
14:39 48 °F 42.1 °F 30.4 in West 2.9 mph 3 mph 80% 0 in 30 W/m2
14:44 48 °F 42.1 °F 30.4 in NW 2.9 mph 4 mph 80% 0 in 32 W/m2
14:49 48 °F 42.1 °F 30.4 in West 0.9 mph 1 mph 80% 0 in 28 W/m2
14:54 48 °F 42.1 °F 30.4 in WNW 2 mph 4 mph 80% 0 in 28 W/m2
14:59 47.8 °F 41.9 °F 30.4 in WNW 2.9 mph 4 mph 80% 0 in 28 W/m2
15:04 48 °F 41.9 °F 30.4 in West 0.9 mph 7 mph 79% 0 in 28 W/m2
15:09 47.8 °F 41.9 °F 30.4 in Calm   3 mph 80% 0 in 28 W/m2
15:14 47.8 °F 41.9 °F 30.4 in West 0.9 mph 7 mph 80% 0 in 28 W/m2
15:19 47.8 °F 41.9 °F 30.4 in Calm   2 mph 80% 0 in 28 W/m2
15:24 47.7 °F 42.1 °F 30.4 in Calm     81% 0 in 26 W/m2
15:29 47.7 °F 42.4 °F 30.4 in West 0.9 mph 2 mph 82% 0 in 25 W/m2
15:34 47.3 °F 42.4 °F 30.4 in West 0.9 mph 7 mph 83% 0 in 25 W/m2
15:39 47.3 °F 42.1 °F 30.4 in West 2 mph 3 mph 82% 0 in 25 W/m2
15:44 47.5 °F 42.6 °F 30.4 in Calm   1 mph 83% 0 in 23 W/m2
15:49 47.3 °F 42.4 °F 30.4 in WNW 0.9 mph 3 mph 83% 0 in 23 W/m2
15:54 47.1 °F 42.3 °F 30.4 in WNW 0.9 mph 2 mph 83% 0 in 21 W/m2
15:59 46.9 °F 42.4 °F 30.4 in Calm   3 mph 84% 0 in 21 W/m2
16:04 46.8 °F 42.3 °F 30.4 in WNW 0.9 mph 4 mph 84% 0 in 21 W/m2
16:09 46.8 °F 41.9 °F 30.4 in West 0.9 mph 4 mph 83% 0 in 21 W/m2
16:14 46.8 °F 42.3 °F 30.4 in Calm   1 mph 84% 0 in 19 W/m2
16:19 46.6 °F 42.1 °F 30.4 in Calm   4 mph 84% 0 in 18 W/m2
16:24 46.2 °F 41.7 °F 30.4 in Calm   1 mph 84% 0 in 16 W/m2
16:29 45.9 °F 41.5 °F 30.4 in West 0.9 mph 3 mph 85% 0 in 16 W/m2
16:34 45.7 °F 41.4 °F 30.4 in Calm   2 mph 85% 0 in 16 W/m2
16:39 45.3 °F 41.4 °F 30.4 in Calm   3 mph 86% 0 in 14 W/m2
16:44 45.1 °F 41.2 °F 30.4 in Calm     86% 0 in 12 W/m2
16:49 45 °F 41.4 °F 30.4 in Calm     87% 0 in 9 W/m2
16:54 44.6 °F 41 °F 30.3 in Calm     87% 0 in 7 W/m2
16:59 44.2 °F 41 °F 30.3 in Calm     88% 0 in 5 W/m2
17:04 44.1 °F 40.8 °F 30.3 in Calm     88% 0 in 0 W/m2
17:09 43.9 °F 40.8 °F 30.3 in Calm     89% 0 in 0 W/m2
17:14 43.3 °F 40.3 °F 30.3 in Calm   1 mph 89% 0 in 0 W/m2
17:19 43.2 °F 40.1 °F 30.3 in Calm     89% 0 in 0 W/m2
17:24 43.2 °F 40.5 °F 30.3 in West 2 mph 2 mph 90% 0 in 0 W/m2
17:29 43 °F 40.5 °F 30.3 in Calm     91% 0 in 0 W/m2
17:34 43 °F 40.5 °F 30.3 in Calm   1 mph 91% 0 in 0 W/m2
17:39 42.8 °F 40.3 °F 30.3 in Calm     91% 0 in 0 W/m2
17:44 42.6 °F 40.1 °F 30.3 in Calm     91% 0 in 0 W/m2
17:49 42.4 °F 39.9 °F 30.3 in Calm     91% 0 in 0 W/m2
17:54 42.3 °F 39.7 °F 30.3 in Calm     91% 0 in 0 W/m2
17:59 42.3 °F 40.1 °F 30.3 in Calm     92% 0 in 0 W/m2
18:04 42.1 °F 39.9 °F 30.3 in Calm     92% 0 in 0 W/m2
18:09 41.9 °F 39.7 °F 30.3 in Calm     92% 0 in 0 W/m2
18:14 41.5 °F 39.4 °F 30.3 in Calm     92% 0 in 0 W/m2
18:19 41.5 °F 39.4 °F 30.4 in Calm     92% 0 in 0 W/m2
18:24 41.4 °F 39.2 °F 30.4 in Calm     92% 0 in 0 W/m2
18:29 41.2 °F 39.4 °F 30.4 in Calm     93% 0 in 0 W/m2
18:34 41.2 °F 39.4 °F 30.3 in Calm     93% 0 in 0 W/m2
18:39 41.2 °F 39.4 °F 30.3 in Calm     93% 0 in 0 W/m2
18:44 41.4 °F 39.7 °F 30.3 in Calm   2 mph 94% 0 in 0 W/m2
18:49 41.4 °F 39.7 °F 30.3 in Calm   1 mph 94% 0 in 0 W/m2
18:54 41.4 °F 39.7 °F 30.3 in Calm     94% 0 in 0 W/m2
18:59 41.4 °F 39.6 °F 30.3 in Calm   1 mph 93% 0 in 0 W/m2
19:04 41.4 °F 39.6 °F 30.3 in South 0.9 mph 2 mph 93% 0 in 0 W/m2
19:09 41.4 °F 39.6 °F 30.3 in South 2 mph 2 mph 93% 0 in 0 W/m2
19:14 41.2 °F 39.4 °F 30.3 in SE 2.9 mph 4 mph 93% 0 in 0 W/m2
19:19 41.4 °F 39.6 °F 30.3 in Calm   3 mph 93% 0 in 0 W/m2
19:24 41.5 °F 39.7 °F 30.3 in Calm     93% 0 in 0 W/m2
19:29 41.5 °F 39.4 °F 30.3 in Calm   2 mph 92% 0 in 0 W/m2
19:34 41.4 °F 39.2 °F 30.3 in SE 0.9 mph 2 mph 92% 0 in 0 W/m2
19:39 41.4 °F 39.2 °F 30.3 in Calm   2 mph 92% 0 in 0 W/m2
19:44 41.2 °F 39 °F 30.3 in ESE 2.9 mph 3 mph 92% 0 in 0 W/m2
19:49 41.2 °F 39 °F 30.3 in Calm     92% 0 in 0 W/m2
19:54 41.2 °F 39 °F 30.3 in Calm     92% 0 in 0 W/m2
19:59 41 °F 38.7 °F 30.3 in Calm     91% 0 in 0 W/m2
20:04 40.8 °F 38.5 °F 30.3 in Calm     91% 0 in 0 W/m2
20:09 40.6 °F 38.3 °F 30.3 in Calm     91% 0 in 0 W/m2
20:15 40.5 °F 38.3 °F 30.3 in ESE 0.9 mph 2 mph 92% 0 in 0 W/m2
20:20 40.5 °F 38.3 °F 30.3 in Calm     92% 0 in 0 W/m2
20:25 40.3 °F 38.1 °F 30.3 in Calm   2 mph 92% 0 in 0 W/m2
20:30 40.3 °F 38.1 °F 30.3 in Calm     92% 0 in 0 W/m2
20:35 40.3 °F 38.1 °F 30.3 in Calm     92% 0 in 0 W/m2
20:40 40.3 °F 38.1 °F 30.3 in Calm     92% 0 in 0 W/m2
20:45 40.3 °F 38.1 °F 30.3 in Calm     92% 0 in 0 W/m2
20:50 39.9 °F 37.8 °F 30.3 in Calm     92% 0 in 0 W/m2
20:55 39.9 °F 37.8 °F 30.3 in Calm     92% 0 in 0 W/m2
21:00 39.9 °F 37.8 °F 30.3 in Calm   2 mph 92% 0 in 0 W/m2
21:05 39.9 °F 37.8 °F 30.3 in Calm   2 mph 92% 0 in 0 W/m2
21:10 40.1 °F 37.9 °F 30.3 in Calm   2 mph 92% 0 in 0 W/m2
21:15 40.3 °F 38.1 °F 30.3 in Calm   1 mph 92% 0 in 0 W/m2
21:20 40.6 °F 38.5 °F 30.3 in Calm     92% 0 in 0 W/m2
21:25 40.8 °F 38.5 °F 30.3 in Calm   2 mph 91% 0 in 0 W/m2
21:30 41.2 °F 38.8 °F 30.3 in Calm     91% 0 in 0 W/m2
21:35 41.4 °F 39 °F 30.3 in WSW 2 mph 4 mph 91% 0 in 0 W/m2
21:40 41.5 °F 38.8 °F 30.3 in WNW 2 mph 5 mph 90% 0 in 0 W/m2
21:45 41.9 °F 38.8 °F 30.3 in West 0.9 mph 4 mph 89% 0 in 0 W/m2
21:50 42.1 °F 39 °F 30.3 in Calm     89% 0 in 0 W/m2
21:55 42.1 °F 38.8 °F 30.3 in SE 2 mph 3 mph 88% 0 in 0 W/m2
22:00 42.1 °F 38.8 °F 30.3 in ESE 4 mph 4 mph 88% 0 in 0 W/m2
22:05 41.7 °F 38.5 °F 30.3 in Calm   1 mph 88% 0 in 0 W/m2
22:10 41.7 °F 38.7 °F 30.3 in ESE 0.9 mph 4 mph 89% 0 in 0 W/m2
22:15 41.5 °F 38.5 °F 30.3 in ESE 2 mph 3 mph 89% 0 in 0 W/m2
22:20 41.5 °F 38.5 °F 30.3 in Calm     89% 0 in 0 W/m2
22:25 41.4 °F 38.3 °F 30.3 in Calm     89% 0 in 0 W/m2
22:30 41.4 °F 38.7 °F 30.3 in Calm     90% 0 in 0 W/m2
22:35 41.2 °F 38.5 °F 30.3 in WNW 0.9 mph 4 mph 90% 0 in 0 W/m2
22:40 41.4 °F 38.7 °F 30.3 in South 2 mph 3 mph 90% 0 in 0 W/m2
22:45 41.2 °F 38.8 °F 30.3 in Calm   2 mph 91% 0 in 0 W/m2
22:50 41.4 °F 39 °F 30.3 in Calm   1 mph 91% 0 in 0 W/m2
22:55 41.2 °F 38.8 °F 30.3 in Calm   1 mph 91% 0 in 0 W/m2
23:00 41.2 °F 38.5 °F 30.3 in Calm   3 mph 90% 0 in 0 W/m2
23:05 41.2 °F 38.8 °F 30.3 in Calm   1 mph 91% 0 in 0 W/m2
23:10 41 °F 38.7 °F 30.3 in SW 0.9 mph 4 mph 91% 0 in 0 W/m2
23:15 41 °F 38.3 °F 30.3 in ESE 0.9 mph 2 mph 90% 0 in 0 W/m2
23:20 40.8 °F 38.1 °F 30.3 in Calm   4 mph 90% 0 in 0 W/m2
23:25 40.8 °F 38.1 °F 30.3 in WSW 2 mph 3 mph 90% 0 in 0 W/m2
23:30 40.6 °F 37.9 °F 30.3 in SW 0.9 mph 4 mph 90% 0 in 0 W/m2
23:35 40.6 °F 37.9 °F 30.3 in West 0.9 mph 1 mph 90% 0 in 0 W/m2
23:40 40.5 °F 37.8 °F 30.3 in NW 0.9 mph 1 mph 90% 0 in 0 W/m2
23:45 40.3 °F 37.6 °F 30.3 in Calm     90% 0 in 0 W/m2
23:50 40.3 °F 37.9 °F 30.3 in Calm   1 mph 91% 0 in 0 W/m2
23:56 40.1 °F 37.8 °F 30.3 in Calm   5 mph 91% 0 in 0 W/m2
Juneau County Weather
Compliments of Weather Underground - 4 mb